Time;durP1;ratioP1;P1;durP2;ratioP2;P2;SDS_P1;SDS_P2;PMS_P1;PMS_P2;Temp;Humidity;BMP_temperature;BMP_pressure;BME280_temperature;BME280_humidity;BME280_pressure;Samples;Min_cycle;Max_cycle;Signal;HPM_P1;HPM_P2
2023/12/04 00:01:59;;;;;;;9.87;6.37;;;-5.80;99.90;;;;;;5015243;28;20486;-61
2023/12/04 00:04:27;;;;;;;8.10;5.53;;;-5.80;99.90;;;;;;5013429;28;20499;-61
2023/12/04 00:06:54;;;;;;;8.57;6.70;;;-5.80;99.90;;;;;;5014634;28;20467;-61
2023/12/04 00:09:23;;;;;;;7.60;5.83;;;-5.80;99.90;;;;;;5014687;28;20508;-62
2023/12/04 00:11:50;;;;;;;9.70;7.00;;;-5.80;99.90;;;;;;5014247;28;20462;-62
2023/12/04 00:14:17;;;;;;;13.07;6.57;;;-5.80;99.90;;;;;;5014743;28;20448;-62
2023/12/04 00:16:45;;;;;;;8.53;4.97;;;-5.80;99.90;;;;;;5014403;28;20963;-62
2023/12/04 00:19:12;;;;;;;7.80;6.03;;;-5.90;99.90;;;;;;5014810;28;21005;-61
2023/12/04 00:21:44;;;;;;;9.47;5.67;;;-5.90;99.90;;;;;;5014718;28;20453;-61
2023/12/04 00:24:11;;;;;;;6.87;5.23;;;-5.90;99.90;;;;;;5012655;28;20958;-61
2023/12/04 00:26:38;;;;;;;8.40;5.57;;;-5.90;99.90;;;;;;5014302;28;20438;-62
2023/12/04 00:29:05;;;;;;;8.93;6.67;;;-5.90;99.90;;;;;;5012103;28;20443;-62
2023/12/04 00:31:32;;;;;;;9.17;6.47;;;-5.80;99.90;;;;;;5014723;28;20513;-62
2023/12/04 00:33:59;;;;;;;6.73;5.27;;;-5.80;99.90;;;;;;5014392;28;20526;-62
2023/12/04 00:36:27;;;;;;;6.30;4.53;;;-5.80;99.90;;;;;;5011574;28;20466;-62
2023/12/04 00:38:55;;;;;;;7.80;4.47;;;-5.80;99.90;;;;;;5020137;28;20523;-62
2023/12/04 00:41:22;;;;;;;6.93;4.33;;;-5.70;99.90;;;;;;5014354;28;20502;-61
2023/12/04 00:43:49;;;;;;;6.80;4.83;;;-5.70;99.90;;;;;;5014533;28;20544;-61
2023/12/04 00:46:16;;;;;;;7.60;4.97;;;-5.70;99.90;;;;;;5014231;28;20451;-62
2023/12/04 00:48:43;;;;;;;5.03;4.50;;;-5.80;99.90;;;;;;5010505;28;20477;-62
2023/12/04 00:51:10;;;;;;;7.33;4.77;;;-5.90;99.90;;;;;;5010038;28;20443;-62
2023/12/04 00:53:36;;;;;;;7.70;4.47;;;-5.90;99.90;;;;;;5013958;28;20502;-62
2023/12/04 00:56:06;;;;;;;7.40;4.70;;;-5.90;99.90;;;;;;5013711;28;20818;-62
2023/12/04 00:58:33;;;;;;;9.73;4.27;;;-6.00;99.90;;;;;;5012387;28;20474;-61
2023/12/04 01:01:00;;;;;;;4.33;3.80;;;-6.10;99.90;;;;;;5013711;28;20838;-61
2023/12/04 01:03:27;;;;;;;5.10;4.50;;;-6.00;99.90;;;;;;5013304;28;20483;-62
2023/12/04 01:05:54;;;;;;;4.40;3.97;;;-6.00;99.90;;;;;;5013142;28;21564;-62
2023/12/04 01:08:21;;;;;;;8.57;3.93;;;-6.00;99.90;;;;;;5012799;28;20510;-61
2023/12/04 01:10:48;;;;;;;5.13;3.77;;;-6.00;99.90;;;;;;5011178;28;20517;-61
2023/12/04 01:13:16;;;;;;;3.93;3.43;;;-6.00;99.90;;;;;;5011598;28;20467;-61
2023/12/04 01:15:44;;;;;;;4.63;4.07;;;-6.10;99.90;;;;;;5013097;28;20808;-62
2023/12/04 01:18:11;;;;;;;4.27;2.90;;;-6.10;99.90;;;;;;5013378;28;20823;-62
2023/12/04 01:20:38;;;;;;;4.30;2.80;;;-6.10;99.90;;;;;;5013878;28;20439;-62
2023/12/04 01:23:05;;;;;;;3.30;3.00;;;-6.10;99.90;;;;;;5013898;28;20495;-61
2023/12/04 01:25:32;;;;;;;5.53;4.23;;;-6.20;99.90;;;;;;5012249;28;20463;-61
2023/12/04 01:27:59;;;;;;;3.80;2.90;;;-6.20;99.90;;;;;;5013164;28;20462;-61
2023/12/04 01:30:27;;;;;;;3.93;3.57;;;-6.20;99.90;;;;;;5013642;28;20982;-62
2023/12/04 01:32:54;;;;;;;3.47;2.50;;;-6.30;99.90;;;;;;5013562;28;20492;-61
2023/12/04 01:35:21;;;;;;;3.77;3.37;;;-6.30;99.90;;;;;;5013728;28;20490;-61
2023/12/04 01:37:48;;;;;;;3.77;3.37;;;-6.30;99.90;;;;;;5019603;28;20521;-62
2023/12/04 01:40:15;;;;;;;4.37;3.73;;;-6.40;99.90;;;;;;5013612;28;20442;-61
2023/12/04 01:42:43;;;;;;;3.20;2.90;;;-6.40;99.90;;;;;;5013456;28;20474;-61
2023/12/04 01:45:10;;;;;;;7.40;5.27;;;-6.40;99.90;;;;;;5013175;28;20447;-61
2023/12/04 01:47:39;;;;;;;7.97;5.17;;;-6.40;99.90;;;;;;5013024;28;20521;-62
2023/12/04 01:50:08;;;;;;;4.23;3.83;;;-6.40;99.90;;;;;;5011932;28;20494;-62
2023/12/04 01:52:36;;;;;;;4.83;3.70;;;-6.40;99.90;;;;;;5013105;28;20435;-62
2023/12/04 01:55:03;;;;;;;4.77;3.93;;;-6.40;99.90;;;;;;5032436;28;20487;-61
2023/12/04 01:57:30;;;;;;;5.20;4.47;;;-6.50;99.90;;;;;;5032440;28;20516;-62
2023/12/04 01:59:57;;;;;;;4.67;4.13;;;-6.50;99.90;;;;;;5032378;28;20446;-62
2023/12/04 02:02:25;;;;;;;5.50;3.53;;;-6.50;99.90;;;;;;5015373;28;20487;-61
2023/12/04 02:04:56;;;;;;;3.90;3.57;;;-6.50;99.90;;;;;;5013077;28;20454;-61
2023/12/04 02:07:23;;;;;;;6.30;4.33;;;-6.50;99.90;;;;;;5012926;28;20514;-61
2023/12/04 02:09:50;;;;;;;6.07;4.53;;;-6.40;99.90;;;;;;5021487;28;20442;-61
2023/12/04 02:12:17;;;;;;;7.57;4.27;;;-6.40;99.90;;;;;;5032623;28;20446;-61
2023/12/04 02:14:44;;;;;;;5.20;3.47;;;-6.30;99.90;;;;;;5018990;28;20540;-62
2023/12/04 02:17:12;;;;;;;5.50;4.43;;;-6.40;99.90;;;;;;5012265;28;20473;-61
2023/12/04 02:19:39;;;;;;;9.57;3.43;;;-6.40;99.90;;;;;;5012829;28;20499;-61
2023/12/04 02:22:08;;;;;;;5.20;3.43;;;-6.40;99.90;;;;;;5012714;28;20526;-62
2023/12/04 02:24:36;;;;;;;4.90;3.30;;;-6.40;99.90;;;;;;5010977;28;21064;-61
2023/12/04 02:27:11;;;;;;;7.03;4.10;;;-6.40;99.90;;;;;;5013572;28;20475;-62
2023/12/04 02:29:43;;;;;;;3.90;3.60;;;-6.40;99.90;;;;;;5012510;28;20426;-61
2023/12/04 02:32:15;;;;;;;6.17;4.40;;;-6.50;99.90;;;;;;5011668;28;20446;-62
2023/12/04 02:34:45;;;;;;;3.63;3.10;;;-6.50;99.90;;;;;;5012398;28;20520;-62
2023/12/04 02:37:13;;;;;;;5.00;3.40;;;-6.60;99.90;;;;;;5011809;28;20478;-61
2023/12/04 02:39:42;;;;;;;4.37;2.43;;;-6.60;99.90;;;;;;5010311;28;20516;-62
2023/12/04 02:42:09;;;;;;;3.33;2.13;;;-6.60;99.90;;;;;;5012028;28;20517;-62
2023/12/04 02:44:36;;;;;;;2.87;2.67;;;-6.60;99.90;;;;;;5012008;28;20548;-62
2023/12/04 02:47:03;;;;;;;3.30;2.97;;;-6.70;99.90;;;;;;5011907;28;20509;-61
2023/12/04 02:49:30;;;;;;;3.33;2.93;;;-6.80;99.90;;;;;;5010540;28;20961;-61
2023/12/04 02:51:58;;;;;;;2.27;1.63;;;-6.80;99.90;;;;;;5011082;28;20471;-62
2023/12/04 02:54:25;;;;;;;2.47;2.30;;;-6.90;99.90;;;;;;5011905;28;20535;-62
2023/12/04 02:56:53;;;;;;;2.53;2.30;;;-6.80;99.90;;;;;;5011919;28;20458;-62
2023/12/04 02:59:20;;;;;;;3.20;2.43;;;-6.80;99.90;;;;;;5026277;28;20438;-62
2023/12/04 03:01:47;;;;;;;3.00;2.43;;;-6.80;99.90;;;;;;5030900;28;20933;-62
2023/12/04 03:04:14;;;;;;;2.20;1.87;;;-6.80;99.90;;;;;;5022432;28;20475;-62
2023/12/04 03:06:41;;;;;;;2.07;1.90;;;-6.80;99.90;;;;;;5005125;28;20459;-62
2023/12/04 03:09:08;;;;;;;4.47;2.53;;;-6.80;99.90;;;;;;5011759;28;20442;-62
2023/12/04 03:11:35;;;;;;;2.77;2.53;;;-6.80;99.90;;;;;;5012150;28;20525;-62
2023/12/04 03:14:03;;;;;;;3.37;2.03;;;-6.70;99.90;;;;;;5013452;28;20438;-61
2023/12/04 03:16:30;;;;;;;2.53;2.33;;;-6.70;99.90;;;;;;5027274;28;21258;-62
2023/12/04 03:18:57;;;;;;;3.23;2.80;;;-6.60;99.90;;;;;;5011644;28;20870;-62
2023/12/04 03:21:24;;;;;;;4.47;2.20;;;-6.50;99.90;;;;;;5012041;28;20449;-62
2023/12/04 03:23:51;;;;;;;2.50;1.93;;;-6.50;99.90;;;;;;5011957;28;20529;-62
2023/12/04 03:26:18;;;;;;;2.27;1.60;;;-6.50;99.90;;;;;;5011957;28;20435;-62
2023/12/04 03:28:45;;;;;;;2.37;2.00;;;-6.50;99.90;;;;;;5011813;28;20487;-62
2023/12/04 03:31:13;;;;;;;3.53;2.40;;;-6.60;99.90;;;;;;5015243;28;20466;-62
2023/12/04 03:33:40;;;;;;;3.77;2.40;;;-6.60;99.90;;;;;;5011517;28;20497;-62
2023/12/04 03:36:08;;;;;;;3.37;2.40;;;-6.60;99.90;;;;;;5011945;28;20446;-62
2023/12/04 03:38:35;;;;;;;4.83;3.10;;;-6.60;99.90;;;;;;5011230;28;20478;-62
2023/12/04 03:41:02;;;;;;;2.77;2.43;;;-6.60;99.90;;;;;;5010453;28;20466;-61
2023/12/04 03:43:30;;;;;;;6.03;3.53;;;-6.50;99.90;;;;;;5012065;28;20540;-62
2023/12/04 03:45:57;;;;;;;4.50;2.57;;;-6.50;99.90;;;;;;5010839;28;20502;-63
2023/12/04 03:48:25;;;;;;;3.27;2.37;;;-6.50;99.90;;;;;;5010366;28;20475;-61
2023/12/04 03:50:52;;;;;;;3.93;2.40;;;-6.50;99.90;;;;;;5011337;28;20506;-62
2023/12/04 03:53:19;;;;;;;4.00;2.33;;;-6.50;99.90;;;;;;5010920;28;20446;-61
2023/12/04 03:55:46;;;;;;;2.63;2.43;;;-6.50;99.90;;;;;;5014652;28;20450;-61
2023/12/04 03:58:13;;;;;;;3.77;2.27;;;-6.40;99.90;;;;;;5010822;28;20498;-62
2023/12/04 04:00:41;;;;;;;4.83;2.77;;;-6.40;99.90;;;;;;5002805;28;20792;-62
2023/12/04 04:03:08;;;;;;;4.57;3.13;;;-6.30;99.90;;;;;;5005092;28;20482;-62
2023/12/04 04:05:37;;;;;;;3.87;3.27;;;-6.20;99.90;;;;;;5011228;28;20550;-61
2023/12/04 04:08:05;;;;;;;5.13;2.60;;;-6.10;99.90;;;;;;5010871;28;20522;-62
2023/12/04 04:10:32;;;;;;;3.10;2.80;;;-6.10;99.90;;;;;;5010896;28;20463;-61
2023/12/04 04:12:59;;;;;;;5.70;3.23;;;-6.10;99.90;;;;;;5011102;28;20938;-62
2023/12/04 04:15:26;;;;;;;5.10;3.57;;;-6.10;99.90;;;;;;5010832;28;20442;-62
2023/12/04 04:17:53;;;;;;;5.50;3.27;;;-6.00;99.90;;;;;;5001653;28;20993;-61
2023/12/04 04:20:21;;;;;;;4.07;3.10;;;-6.00;99.90;;;;;;5011291;28;20455;-62
2023/12/04 04:22:50;;;;;;;5.90;3.83;;;-6.10;99.90;;;;;;5011478;28;20514;-61
2023/12/04 04:25:18;;;;;;;5.83;3.10;;;-6.10;99.90;;;;;;5014590;28;20493;-61
2023/12/04 04:27:45;;;;;;;4.77;3.97;;;-6.10;99.90;;;;;;5013976;28;20456;-62
2023/12/04 04:30:13;;;;;;;4.80;3.13;;;-6.10;99.90;;;;;;5014470;28;21000;-62
2023/12/04 04:32:40;;;;;;;5.47;4.07;;;-6.10;99.90;;;;;;5012873;28;20438;-61
2023/12/04 04:35:08;;;;;;;4.03;3.40;;;-6.10;99.90;;;;;;5014247;28;20439;-62
2023/12/04 04:37:35;;;;;;;5.60;3.57;;;-6.00;99.90;;;;;;5004827;28;20541;-62
2023/12/04 04:40:04;;;;;;;6.63;3.13;;;-6.00;99.90;;;;;;5014289;28;20521;-61
2023/12/04 04:42:32;;;;;;;6.13;3.13;;;-6.00;99.90;;;;;;5014077;28;20539;-62
2023/12/04 04:44:59;;;;;;;4.23;3.00;;;-5.90;99.90;;;;;;5014138;28;20483;-62
2023/12/04 04:47:26;;;;;;;9.63;4.23;;;-5.90;99.90;;;;;;5013298;28;20515;-62
2023/12/04 04:49:53;;;;;;;4.77;3.67;;;-5.90;99.90;;;;;;5013558;28;20451;-62
2023/12/04 04:52:20;;;;;;;5.13;3.80;;;-5.80;99.90;;;;;;5014396;28;20517;-62
2023/12/04 04:54:47;;;;;;;5.47;4.07;;;-5.80;99.90;;;;;;5006181;28;20443;-62
2023/12/04 04:57:15;;;;;;;12.03;6.67;;;-5.80;99.90;;;;;;5013790;28;20478;-62
2023/12/04 04:59:42;;;;;;;10.53;6.67;;;-5.80;99.90;;;;;;5013991;28;20506;-61
2023/12/04 05:02:09;;;;;;;13.43;7.63;;;-5.80;99.90;;;;;;5013234;28;20795;-62
2023/12/04 05:04:37;;;;;;;14.50;7.33;;;-5.90;99.90;;;;;;5013713;28;20550;-62
2023/12/04 05:07:04;;;;;;;11.07;6.77;;;-5.90;99.90;;;;;;5012923;28;20521;-61
2023/12/04 05:09:31;;;;;;;8.37;4.93;;;-5.90;99.90;;;;;;5013669;28;20510;-61
2023/12/04 05:11:58;;;;;;;7.93;5.17;;;-6.00;99.90;;;;;;5014019;28;20449;-61
2023/12/04 05:14:27;;;;;;;7.70;5.20;;;-6.00;99.90;;;;;;5013827;28;20490;-62
2023/12/04 05:16:54;;;;;;;5.07;4.57;;;-6.00;99.90;;;;;;5013236;28;21041;-62
2023/12/04 05:19:21;;;;;;;4.40;3.83;;;-6.10;99.90;;;;;;5013204;28;20989;-62
2023/12/04 05:21:48;;;;;;;5.60;4.23;;;-6.10;99.90;;;;;;5012942;28;20824;-62
2023/12/04 05:24:15;;;;;;;5.63;3.93;;;-6.10;99.90;;;;;;5010723;28;20490;-61
2023/12/04 05:26:42;;;;;;;8.20;4.63;;;-6.00;99.90;;;;;;5013208;28;20504;-62
2023/12/04 05:29:08;;;;;;;5.73;4.60;;;-6.00;99.90;;;;;;5013786;28;20446;-62
2023/12/04 05:31:37;;;;;;;7.77;4.53;;;-6.00;99.90;;;;;;5013313;28;20473;-62
2023/12/04 05:34:04;;;;;;;9.80;4.53;;;-6.00;99.90;;;;;;5013277;28;20440;-61
2023/12/04 05:36:31;;;;;;;7.57;4.70;;;-6.00;99.90;;;;;;5003633;28;20550;-62
2023/12/04 05:38:58;;;;;;;5.60;3.33;;;-6.00;99.90;;;;;;5007334;28;20448;-61
2023/12/04 05:41:25;;;;;;;10.30;5.83;;;-6.00;99.90;;;;;;5010704;28;20447;-61
2023/12/04 05:43:52;;;;;;;13.37;6.90;;;-5.90;99.90;;;;;;5013023;28;20478;-62
2023/12/04 05:46:19;;;;;;;9.47;5.00;;;-5.80;99.90;;;;;;5012846;28;20481;-62
2023/12/04 05:48:48;;;;;;;9.17;6.00;;;-5.80;99.90;;;;;;5004918;28;20529;-62
2023/12/04 05:51:15;;;;;;;16.10;8.43;;;-5.80;99.90;;;;;;5013001;28;20495;-62
2023/12/04 05:53:42;;;;;;;17.37;8.67;;;-5.70;99.90;;;;;;5012354;28;20502;-62
2023/12/04 05:56:10;;;;;;;16.07;8.03;;;-5.70;99.90;;;;;;5010618;28;20506;-62
2023/12/04 05:58:37;;;;;;;12.40;7.53;;;-5.60;99.90;;;;;;5011864;28;20517;-61
2023/12/04 06:01:06;;;;;;;12.33;8.13;;;-5.60;99.90;;;;;;5012626;28;20455;-62
2023/12/04 06:03:33;;;;;;;7.53;5.70;;;-5.60;99.90;;;;;;5012196;28;20533;-61
2023/12/04 06:06:01;;;;;;;7.83;4.97;;;-5.50;99.90;;;;;;5013653;28;20443;-62
2023/12/04 06:08:28;;;;;;;7.70;5.47;;;-5.50;99.90;;;;;;5012235;28;20463;-62
2023/12/04 06:10:55;;;;;;;9.20;6.03;;;-5.50;99.90;;;;;;5011672;28;20444;-62
2023/12/04 06:13:22;;;;;;;9.30;6.33;;;-5.40;99.90;;;;;;5012421;28;20572;-62
2023/12/04 06:15:49;;;;;;;12.10;6.97;;;-5.40;99.90;;;;;;5012572;28;20436;-62
2023/12/04 06:18:16;;;;;;;8.53;5.70;;;-5.40;99.90;;;;;;5012198;28;20473;-62
2023/12/04 06:20:43;;;;;;;12.10;6.90;;;-5.40;99.90;;;;;;5012453;28;20439;-62
2023/12/04 06:23:12;;;;;;;9.40;6.20;;;-5.40;99.90;;;;;;5012839;28;20518;-62
2023/12/04 06:25:39;;;;;;;11.23;7.00;;;-5.40;99.90;;;;;;5011255;28;20494;-61
2023/12/04 06:28:07;;;;;;;10.73;7.27;;;-5.40;99.90;;;;;;5006850;28;20513;-62
2023/12/04 06:30:34;;;;;;;10.60;6.83;;;-5.30;99.90;;;;;;5012025;28;20493;-61
2023/12/04 06:33:02;;;;;;;12.83;7.47;;;-5.30;99.90;;;;;;5012470;28;20870;-61
2023/12/04 06:35:30;;;;;;;10.80;7.13;;;-5.30;99.90;;;;;;5012219;28;20443;-61
2023/12/04 06:38:00;;;;;;;9.97;6.90;;;-5.30;99.90;;;;;;5010695;28;20883;-62
2023/12/04 06:40:29;;;;;;;9.37;7.70;;;-5.30;99.90;;;;;;5012580;28;20444;-61
2023/12/04 06:42:57;;;;;;;13.30;7.40;;;-5.30;99.90;;;;;;5010916;28;20938;-61
2023/12/04 06:45:24;;;;;;;13.67;8.30;;;-5.30;99.90;;;;;;5011779;28;20482;-62
2023/12/04 06:47:52;;;;;;;13.90;7.37;;;-5.30;99.90;;;;;;5011162;28;20471;-62
2023/12/04 06:50:19;;;;;;;14.27;7.60;;;-5.20;99.90;;;;;;5011668;28;20447;-62
2023/12/04 06:52:46;;;;;;;11.47;7.13;;;-5.20;99.90;;;;;;5008181;28;20451;-62
2023/12/04 06:55:13;;;;;;;10.83;6.67;;;-5.10;99.90;;;;;;5011903;28;20498;-61
2023/12/04 06:57:42;;;;;;;10.77;7.07;;;-5.10;99.90;;;;;;5013922;28;20844;-62
2023/12/04 07:00:12;;;;;;;10.03;7.10;;;-5.10;99.90;;;;;;5011048;28;20443;-62
2023/12/04 07:02:39;;;;;;;10.30;7.13;;;-5.00;99.90;;;;;;5006722;28;20455;-62
2023/12/04 07:05:07;;;;;;;11.48;7.53;;;-5.00;99.90;;;;;;5010529;28;20455;-63
2023/12/04 07:07:34;;;;;;;9.83;7.10;;;-4.90;99.90;;;;;;5007027;28;20229;-62
2023/12/04 07:10:01;;;;;;;10.87;7.23;;;-4.80;99.90;;;;;;5011577;28;20451;-62
2023/12/04 07:12:28;;;;;;;11.90;7.40;;;-4.70;99.90;;;;;;5011606;28;20509;-62
2023/12/04 07:14:56;;;;;;;13.23;8.80;;;-4.70;99.90;;;;;;5011056;28;20494;-62
2023/12/04 07:17:23;;;;;;;10.77;7.57;;;-4.70;99.90;;;;;;5010968;28;21037;-62
2023/12/04 07:19:50;;;;;;;15.23;8.47;;;-4.70;99.90;;;;;;5011310;28;20444;-65
2023/12/04 07:22:17;;;;;;;18.73;10.50;;;-4.60;99.90;;;;;;5011396;28;20455;-63
2023/12/04 07:24:44;;;;;;;21.73;14.17;;;-4.60;99.90;;;;;;5011509;28;20477;-61
2023/12/04 07:27:11;;;;;;;33.13;19.77;;;-4.50;99.90;;;;;;5015738;28;20471;-60
2023/12/04 07:29:38;;;;;;;34.67;22.23;;;-4.50;99.90;;;;;;5011004;28;20451;-61
2023/12/04 07:32:08;;;;;;;40.30;23.60;;;-4.40;99.90;;;;;;5010704;28;20534;-59
2023/12/04 07:34:35;;;;;;;42.77;24.87;;;-4.50;99.90;;;;;;5011113;28;20541;-59
2023/12/04 07:37:02;;;;;;;41.87;24.13;;;-4.40;99.90;;;;;;5007060;28;20479;-60
2023/12/04 07:39:29;;;;;;;42.23;24.20;;;-4.40;99.90;;;;;;5011335;28;20441;-59
2023/12/04 07:41:56;;;;;;;56.87;29.77;;;-4.30;99.90;;;;;;5012321;28;20499;-59
2023/12/04 07:44:23;;;;;;;61.10;27.97;;;-4.30;99.90;;;;;;5011220;28;20939;-59
2023/12/04 07:46:50;;;;;;;52.83;26.97;;;-4.40;99.90;;;;;;5010478;28;20219;-60
2023/12/04 07:49:18;;;;;;;47.47;27.67;;;-4.30;99.90;;;;;;5011459;28;20514;-60
2023/12/04 07:51:45;;;;;;;54.13;28.73;;;-4.30;99.90;;;;;;5010880;28;20842;-59
2023/12/04 07:54:12;;;;;;;41.67;25.70;;;-4.20;99.90;;;;;;5007845;28;20938;-60
2023/12/04 07:56:39;;;;;;;42.47;25.67;;;-4.20;99.90;;;;;;5002342;28;20873;-59
2023/12/04 07:59:06;;;;;;;49.00;27.70;;;-4.10;99.90;;;;;;5013752;28;20255;-60
2023/12/04 08:01:34;;;;;;;46.67;24.93;;;-4.00;99.90;;;;;;5014703;28;20901;-59
2023/12/04 08:04:02;;;;;;;44.37;26.07;;;-4.00;99.90;;;;;;5015135;28;20454;-59
2023/12/04 08:06:31;;;;;;;40.23;22.43;;;-3.90;99.90;;;;;;5014605;28;20666;-59
2023/12/04 08:08:59;;;;;;;39.73;21.67;;;-3.80;99.90;;;;;;5014946;28;20533;-60
2023/12/04 08:11:26;;;;;;;59.53;29.00;;;-3.70;99.90;;;;;;5014794;28;20452;-59
2023/12/04 08:13:52;;;;;;;50.07;25.93;;;-3.60;99.90;;;;;;5014239;28;20517;-59
2023/12/04 08:16:20;;;;;;;44.70;23.80;;;-3.60;99.90;;;;;;5014144;28;21026;-60
2023/12/04 08:18:47;;;;;;;41.67;23.77;;;-3.50;99.90;;;;;;5008840;28;20229;-59
2023/12/04 08:21:14;;;;;;;46.57;24.37;;;-3.50;99.90;;;;;;5010924;28;20664;-59
2023/12/04 08:23:42;;;;;;;30.27;18.37;;;-3.40;99.90;;;;;;5014659;28;20507;-59
2023/12/04 08:26:09;;;;;;;31.10;18.90;;;-3.30;99.90;;;;;;5014421;28;20703;-60
2023/12/04 08:28:37;;;;;;;29.60;16.80;;;-3.30;99.90;;;;;;5014249;28;20468;-60
2023/12/04 08:31:04;;;;;;;27.33;17.70;;;-3.20;99.90;;;;;;5014606;28;20205;-60
2023/12/04 08:33:31;;;;;;;27.60;18.67;;;-3.20;99.90;;;;;;5007192;28;20291;-59
2023/12/04 08:35:58;;;;;;;27.80;17.60;;;-3.20;99.90;;;;;;5013847;28;20191;-60
2023/12/04 08:38:25;;;;;;;30.57;17.23;;;-3.10;99.90;;;;;;5005603;28;20234;-59
2023/12/04 08:40:54;;;;;;;19.43;13.27;;;-2.90;99.90;;;;;;5014279;28;20224;-60
2023/12/04 08:43:21;;;;;;;21.43;14.57;;;-2.80;99.90;;;;;;5013309;28;20730;-59
2023/12/04 08:45:48;;;;;;;16.53;11.50;;;-2.70;99.90;;;;;;5006375;28;20478;-60
2023/12/04 08:48:15;;;;;;;23.40;13.63;;;-2.60;99.90;;;;;;5012127;28;20220;-60
2023/12/04 08:50:42;;;;;;;20.67;13.13;;;-2.60;99.90;;;;;;5014070;28;20213;-59
2023/12/04 08:53:09;;;;;;;25.17;14.47;;;-2.50;99.90;;;;;;5014215;28;20206;-59
2023/12/04 08:55:36;;;;;;;22.53;15.97;;;-2.50;99.90;;;;;;5013888;28;20195;-59
2023/12/04 08:58:05;;;;;;;17.63;11.93;;;-2.30;99.90;;;;;;5013737;28;20607;-60
2023/12/04 09:00:32;;;;;;;20.43;11.07;;;-2.30;99.90;;;;;;5013744;28;20205;-59
2023/12/04 09:02:59;;;;;;;13.77;9.47;;;-2.30;99.90;;;;;;5013935;28;20199;-60
2023/12/04 09:05:26;;;;;;;12.50;10.10;;;-2.10;99.90;;;;;;5013219;28;20219;-60
2023/12/04 09:07:53;;;;;;;14.73;10.17;;;-2.10;99.90;;;;;;5013483;28;20223;-60
2023/12/04 09:10:19;;;;;;;13.30;9.70;;;-1.90;99.90;;;;;;5013872;28;20211;-59
2023/12/04 09:12:46;;;;;;;15.13;9.27;;;-1.70;99.90;;;;;;5010264;28;20200;-60
2023/12/04 09:15:15;;;;;;;18.63;10.37;;;-1.70;99.90;;;;;;5013650;28;20211;-60
2023/12/04 09:17:42;;;;;;;13.13;8.97;;;-1.60;99.90;;;;;;5013000;28;20284;-59
2023/12/04 09:20:09;;;;;;;15.33;10.17;;;-1.60;99.90;;;;;;5012358;28;20337;-59
2023/12/04 09:22:38;;;;;;;13.63;10.03;;;-1.40;99.90;;;;;;5018702;28;20195;-60
2023/12/04 09:25:06;;;;;;;24.57;12.43;;;-1.10;99.90;;;;;;5003807;28;20227;-59
2023/12/04 09:27:33;;;;;;;16.90;10.23;;;-0.90;99.90;;;;;;5012944;28;20365;-59
2023/12/04 09:30:00;;;;;;;24.20;14.20;;;-0.80;99.90;;;;;;5011926;28;20296;-60
2023/12/04 09:32:28;;;;;;;23.23;14.20;;;-0.80;99.90;;;;;;5011687;28;20260;-59
2023/12/04 09:34:55;;;;;;;18.00;13.03;;;-0.90;99.90;;;;;;5014730;28;20245;-59
2023/12/04 09:37:22;;;;;;;16.80;12.77;;;-0.80;99.90;;;;;;5011430;28;20612;-59
2023/12/04 09:39:50;;;;;;;17.27;12.60;;;-1.10;99.90;;;;;;5010315;28;20276;-60
2023/12/04 09:42:18;;;;;;;24.37;14.57;;;-1.10;99.90;;;;;;5011308;28;20293;-59
2023/12/04 09:44:47;;;;;;;21.30;13.93;;;-1.10;99.90;;;;;;5012290;28;20256;-58
2023/12/04 09:47:14;;;;;;;19.70;14.83;;;-1.00;99.90;;;;;;5011118;28;20286;-60
2023/12/04 09:49:43;;;;;;;19.10;14.20;;;-0.90;99.90;;;;;;5013174;28;20201;-60
2023/12/04 09:52:10;;;;;;;20.33;14.40;;;-0.80;99.90;;;;;;5012138;28;20212;-60
2023/12/04 09:54:37;;;;;;;23.33;14.73;;;-0.90;99.90;;;;;;5012871;28;20203;-59
2023/12/04 09:57:05;;;;;;;24.17;15.13;;;-0.90;99.90;;;;;;5010997;28;20286;-60
2023/12/04 09:59:32;;;;;;;24.80;13.60;;;-0.90;99.90;;;;;;5010714;28;20666;-60
2023/12/04 10:01:59;;;;;;;17.83;12.70;;;-0.90;99.90;;;;;;5012036;28;20205;-59
2023/12/04 10:04:27;;;;;;;23.60;14.43;;;-0.90;99.90;;;;;;5011210;28;20240;-60
2023/12/04 10:06:55;;;;;;;19.37;12.63;;;-0.90;99.90;;;;;;5011875;28;20249;-60
2023/12/04 10:09:23;;;;;;;18.37;12.17;;;-0.90;99.90;;;;;;5015451;28;20205;-60
2023/12/04 10:11:52;;;;;;;18.50;11.77;;;-0.80;99.90;;;;;;5008931;28;20288;-59
2023/12/04 10:14:20;;;;;;;13.97;10.87;;;-0.70;99.90;;;;;;5009916;28;20757;-60
2023/12/04 10:16:51;;;;;;;17.70;11.50;;;-0.60;99.90;;;;;;5012025;28;20224;-59
2023/12/04 10:19:21;;;;;;;10.20;8.33;;;-0.50;99.90;;;;;;5019785;28;20200;-59
2023/12/04 10:21:49;;;;;;;14.87;9.30;;;-0.50;99.90;;;;;;5011859;28;20224;-60
2023/12/04 10:24:32;;;;;;;12.77;8.83;;;-0.60;99.90;;;;;;5011619;28;20231;-59
2023/12/04 10:27:00;;;;;;;15.60;8.97;;;-0.50;99.90;;;;;;5011292;28;20225;-59
2023/12/04 10:29:30;;;;;;;13.10;9.80;;;-0.40;99.90;;;;;;5012294;28;20205;-60
2023/12/04 10:32:00;;;;;;;15.50;10.03;;;-0.40;99.90;;;;;;5006522;28;20289;-60
2023/12/04 10:34:27;;;;;;;10.87;8.20;;;-0.20;99.90;;;;;;5012160;28;20213;-59
2023/12/04 10:36:54;;;;;;;15.97;8.67;;;-0.10;99.90;;;;;;5011935;28;20233;-60
2023/12/04 10:39:22;;;;;;;17.17;7.93;;;-0.30;99.90;;;;;;5011897;28;20300;-60
2023/12/04 10:42:02;;;;;;;12.37;6.90;;;-0.30;99.90;;;;;;5010478;28;20253;-60
2023/12/04 10:44:31;;;;;;;10.60;6.83;;;-0.20;99.90;;;;;;5012137;28;20287;-59
2023/12/04 10:47:00;;;;;;;11.20;7.97;;;0.00;99.90;;;;;;5005945;28;20230;-60
2023/12/04 10:49:28;;;;;;;10.80;7.20;;;0.40;99.90;;;;;;5007988;28;20206;-59
2023/12/04 10:51:59;;;;;;;10.23;7.87;;;0.70;99.90;;;;;;5010980;28;20233;-60
2023/12/04 10:54:26;;;;;;;9.90;7.50;;;0.80;99.90;;;;;;5011879;28;20291;-59
2023/12/04 10:56:59;;;;;;;8.73;7.83;;;1.00;99.90;;;;;;5010903;28;20221;-60
2023/12/04 10:59:33;;;;;;;11.50;8.03;;;1.30;99.90;;;;;;5011524;28;20206;-59
2023/12/04 11:02:05;;;;;;;12.40;7.87;;;1.60;99.90;;;;;;5012102;28;20201;-60
2023/12/04 11:04:35;;;;;;;16.90;9.60;;;2.00;99.90;;;;;;5011512;28;20206;-60
2023/12/04 11:07:03;;;;;;;15.87;9.53;;;2.40;99.90;;;;;;5012970;28;20231;-59
2023/12/04 11:09:32;;;;;;;17.13;8.67;;;2.40;99.90;;;;;;5011781;28;20677;-60
2023/12/04 11:12:07;;;;;;;13.40;8.90;;;2.30;99.90;;;;;;5011293;28;20209;-59
2023/12/04 11:14:43;;;;;;;13.77;8.90;;;2.60;99.90;;;;;;5012739;28;20208;-60
2023/12/04 11:17:14;;;;;;;18.17;11.27;;;2.50;99.90;;;;;;5005978;28;20266;-59
2023/12/04 11:19:50;;;;;;;14.67;10.60;;;2.50;99.90;;;;;;5011604;28;20259;-60
2023/12/04 11:22:20;;;;;;;16.90;9.83;;;2.20;99.90;;;;;;5011183;28;20207;-59
2023/12/04 11:24:48;;;;;;;18.47;10.80;;;2.20;99.90;;;;;;5011056;28;20734;-59
2023/12/04 11:27:16;;;;;;;13.40;9.40;;;1.80;99.90;;;;;;5011266;28;20815;-60
2023/12/04 11:29:45;;;;;;;17.33;11.00;;;1.70;99.90;;;;;;5010911;28;20356;-60
2023/12/04 11:32:16;;;;;;;18.07;11.50;;;1.50;99.90;;;;;;5011378;28;20622;-60
2023/12/04 11:34:49;;;;;;;17.67;10.70;;;1.60;99.90;;;;;;5013881;28;20240;-60
2023/12/04 11:37:16;;;;;;;19.17;10.90;;;1.70;99.90;;;;;;5015166;28;20311;-59
2023/12/04 11:39:44;;;;;;;22.47;13.07;;;1.80;99.90;;;;;;5014398;28;20553;-60
2023/12/04 11:42:12;;;;;;;14.57;10.67;;;1.80;99.90;;;;;;5015718;28;20201;-60
2023/12/04 11:44:42;;;;;;;18.47;11.27;;;1.80;99.90;;;;;;5017527;28;20204;-60
2023/12/04 11:47:11;;;;;;;18.17;10.90;;;2.00;99.90;;;;;;5034847;28;20227;-59
2023/12/04 11:49:39;;;;;;;18.07;10.77;;;1.90;99.90;;;;;;5018531;28;20237;-59
2023/12/04 11:52:07;;;;;;;20.67;11.73;;;2.00;99.90;;;;;;5015314;28;20209;-60
2023/12/04 11:54:59;;;;;;;17.57;11.50;;;1.80;99.90;;;;;;5020264;28;20654;-59
2023/12/04 11:57:29;;;;;;;20.13;12.37;;;1.60;99.90;;;;;;5014616;28;20707;-60
2023/12/04 12:00:11;;;;;;;23.17;14.37;;;1.40;99.90;;;;;;5019963;28;20208;-60
2023/12/04 12:02:42;;;;;;;18.63;12.23;;;1.60;99.90;;;;;;5014722;28;20211;-60
2023/12/04 12:05:09;;;;;;;24.57;13.40;;;1.50;99.90;;;;;;5015147;28;20666;-60
2023/12/04 12:07:36;;;;;;;22.23;13.53;;;1.40;99.90;;;;;;5014117;28;20283;-60
2023/12/04 12:10:03;;;;;;;25.50;13.27;;;1.60;99.90;;;;;;5014826;28;20273;-60
2023/12/04 12:12:32;;;;;;;26.37;14.50;;;1.60;99.90;;;;;;5014459;28;20244;-59
2023/12/04 12:14:59;;;;;;;28.20;13.77;;;1.70;99.90;;;;;;5015016;28;20293;-60
2023/12/04 12:17:26;;;;;;;24.67;14.37;;;1.90;99.90;;;;;;5013693;28;20309;-60
2023/12/04 12:19:56;;;;;;;31.13;15.53;;;1.90;99.90;;;;;;5018181;28;20205;-60
2023/12/04 12:22:23;;;;;;;29.33;15.80;;;2.00;99.90;;;;;;5014686;28;20201;-59
2023/12/04 12:24:51;;;;;;;30.27;15.33;;;2.10;99.90;;;;;;5014409;28;20557;-60
2023/12/04 12:27:18;;;;;;;28.90;16.23;;;2.10;99.90;;;;;;5014118;28;20279;-60
2023/12/04 12:29:45;;;;;;;27.23;14.90;;;2.20;99.90;;;;;;5014643;28;20255;-59
2023/12/04 12:32:12;;;;;;;30.93;18.17;;;2.20;99.90;;;;;;5014690;28;20208;-60
2023/12/04 12:34:39;;;;;;;33.00;17.87;;;2.00;99.90;;;;;;5012564;28;20911;-60
2023/12/04 12:37:07;;;;;;;30.00;18.73;;;2.00;99.90;;;;;;5012321;28;20489;-67
2023/12/04 12:39:34;;;;;;;24.87;16.10;;;1.80;99.90;;;;;;5013498;28;20201;-69
2023/12/04 12:42:04;;;;;;;26.00;16.60;;;1.80;99.90;;;;;;5013656;28;20621;-68
2023/12/04 12:44:39;;;;;;;32.40;18.03;;;1.80;99.90;;;;;;5013464;28;20260;-66